createdAt,value
2018-04-16T00:00:22.287Z,79.30
2018-04-16T00:02:50.253Z,79.30
2018-04-16T00:05:18.255Z,79.20
2018-04-16T00:07:45.784Z,79.20
2018-04-16T00:10:13.856Z,79.10
2018-04-16T00:12:41.933Z,79.20
2018-04-16T00:15:09.907Z,79.20
2018-04-16T00:17:37.460Z,79.20
2018-04-16T00:20:07.479Z,79.30
2018-04-16T00:22:35.446Z,79.20
2018-04-16T00:25:03.212Z,79.20
2018-04-16T00:27:31.387Z,79.20
2018-04-16T00:30:00.070Z,79.20
2018-04-16T00:32:33.733Z,79.10
2018-04-16T00:35:06.899Z,79.30
2018-04-16T00:37:40.160Z,79.40
2018-04-16T00:40:13.449Z,79.40
2018-04-16T00:42:48.744Z,79.40
2018-04-16T00:45:22.300Z,79.40
2018-04-16T00:47:55.592Z,79.40
2018-04-16T00:50:28.991Z,79.40
2018-04-16T00:53:02.307Z,79.40
2018-04-16T00:55:36.188Z,79.30
2018-04-16T00:58:09.941Z,79.40
2018-04-16T01:00:43.308Z,79.40
2018-04-16T01:03:16.894Z,79.40
2018-04-16T01:05:50.391Z,79.40
2018-04-16T01:08:23.903Z,79.40
2018-04-16T01:10:57.307Z,79.40
2018-04-16T01:13:30.812Z,79.40
2018-04-16T01:16:04.252Z,79.50
2018-04-16T01:18:37.614Z,79.50
2018-04-16T01:21:10.945Z,79.50
2018-04-16T01:23:44.023Z,79.50
2018-04-16T01:26:17.157Z,79.50
2018-04-16T01:28:50.863Z,79.50
2018-04-16T01:31:24.672Z,79.50
2018-04-16T01:33:58.373Z,79.50
2018-04-16T01:36:31.954Z,79.50
2018-04-16T01:39:05.991Z,79.50
2018-04-16T01:41:39.697Z,79.50
2018-04-16T01:44:13.157Z,79.50
2018-04-16T01:46:46.497Z,79.50
2018-04-16T01:49:19.990Z,79.50
2018-04-16T01:51:53.276Z,79.50
2018-04-16T01:54:26.980Z,79.50
2018-04-16T01:57:00.583Z,79.50
2018-04-16T01:59:34.390Z,79.50
2018-04-16T02:02:08.203Z,79.60
2018-04-16T02:04:41.694Z,79.50
2018-04-16T02:07:15.507Z,79.50
2018-04-16T02:09:49.100Z,79.60
2018-04-16T02:12:22.703Z,79.60
2018-04-16T02:14:56.073Z,79.60
2018-04-16T02:17:29.196Z,79.60
2018-04-16T02:20:03.307Z,79.70
2018-04-16T02:22:36.923Z,79.70
2018-04-16T02:25:10.402Z,79.70
2018-04-16T02:27:43.799Z,79.70
2018-04-16T02:30:17.447Z,79.70
2018-04-16T02:32:50.593Z,79.70
2018-04-16T02:35:23.994Z,79.80
2018-04-16T02:37:57.735Z,79.80
2018-04-16T02:40:30.995Z,79.90
2018-04-16T02:46:08.614Z,79.80
2018-04-16T02:48:42.317Z,79.90
2018-04-16T02:51:16.024Z,79.90
2018-04-16T02:53:49.924Z,79.90
2018-04-16T02:56:23.525Z,80.00
2018-04-16T02:58:57.773Z,80.00
2018-04-16T03:01:31.140Z,80.20
2018-04-16T03:04:04.750Z,80.10
2018-04-16T03:06:39.893Z,80.10
2018-04-16T03:09:13.183Z,80.20
2018-04-16T03:11:46.877Z,80.10
2018-04-16T03:14:20.682Z,80.10
2018-04-16T03:16:54.285Z,80.20
2018-04-16T03:19:27.786Z,80.10
2018-04-16T03:22:00.984Z,80.10
2018-04-16T03:24:36.554Z,80.20
2018-04-16T03:27:09.773Z,80.20
2018-04-16T03:29:43.571Z,80.20
2018-04-16T03:32:16.607Z,80.20
2018-04-16T03:34:50.534Z,80.20
2018-04-16T03:37:23.919Z,80.30
2018-04-16T03:39:57.723Z,80.30
2018-04-16T03:42:30.861Z,80.30
2018-04-16T03:45:04.113Z,80.30
2018-04-16T03:47:37.509Z,80.30
2018-04-16T03:50:11.107Z,80.40
2018-04-16T03:52:44.820Z,80.40
2018-04-16T03:58:20.189Z,80.40
2018-04-16T04:00:47.727Z,80.40
2018-04-16T04:03:15.296Z,80.50
2018-04-16T04:05:43.097Z,80.50
2018-04-16T04:08:10.733Z,80.50
2018-04-16T04:10:38.556Z,80.50
2018-04-16T04:13:06.148Z,80.50
2018-04-16T04:15:34.229Z,80.50
2018-04-16T04:18:01.888Z,80.50
2018-04-16T04:20:29.444Z,80.50
2018-04-16T04:23:09.316Z,80.40
2018-04-16T04:25:48.846Z,80.50
2018-04-16T04:28:32.273Z,80.50
2018-04-16T04:31:00.442Z,80.50
2018-04-16T04:33:28.411Z,80.50
2018-04-16T04:35:56.284Z,80.60
2018-04-16T04:38:24.147Z,80.60
2018-04-16T04:40:52.114Z,80.60
2018-04-16T04:43:20.084Z,80.60
2018-04-16T04:45:48.054Z,80.80
2018-04-16T04:48:16.135Z,80.80
2018-04-16T04:50:44.095Z,80.70
2018-04-16T04:53:11.987Z,80.50
2018-04-16T04:55:39.418Z,80.50
2018-04-16T04:58:07.494Z,80.50
2018-04-16T05:00:35.413Z,80.60
2018-04-16T05:03:02.948Z,80.60
2018-04-16T05:05:30.497Z,80.70
2018-04-16T05:07:59.471Z,80.90
2018-04-16T05:10:27.649Z,80.70
2018-04-16T05:12:55.106Z,80.90
2018-04-16T05:15:23.112Z,80.90
2018-04-16T05:17:51.785Z,80.90
2018-04-16T05:20:19.325Z,81.00
2018-04-16T05:22:47.494Z,80.80
2018-04-16T05:25:16.285Z,80.70
2018-04-16T05:27:44.126Z,80.60
2018-04-16T05:30:11.724Z,80.30
2018-04-16T05:32:40.763Z,80.50
2018-04-16T05:35:08.266Z,80.60
2018-04-16T05:37:38.596Z,80.70
2018-04-16T05:40:06.765Z,80.80
2018-04-16T05:42:37.705Z,80.70
2018-04-16T05:45:05.676Z,80.90
2018-04-16T05:47:34.459Z,81.10
2018-04-16T05:50:02.738Z,81.20
2018-04-16T05:52:30.645Z,81.10
2018-04-16T05:54:59.196Z,81.30
2018-04-16T05:57:26.698Z,81.30
2018-04-16T05:59:54.411Z,81.30
2018-04-16T06:02:22.207Z,81.30
2018-04-16T06:04:49.951Z,81.40
2018-04-16T06:07:17.367Z,81.50
2018-04-16T06:09:44.980Z,81.20
2018-04-16T06:12:12.646Z,81.60
2018-04-16T06:14:40.106Z,81.70
2018-04-16T06:17:07.955Z,81.30
2018-04-16T06:19:36.430Z,83.70
2018-04-16T06:22:04.398Z,82.30
2018-04-16T06:24:32.366Z,81.20
2018-04-16T06:27:00.158Z,80.80
2018-04-16T06:29:27.573Z,80.30
2018-04-16T06:31:55.156Z,79.90
2018-04-16T06:34:23.119Z,79.80
2018-04-16T06:36:51.116Z,79.40
2018-04-16T06:39:18.556Z,79.30
2018-04-16T06:41:46.057Z,79.90
2018-04-16T06:44:13.569Z,79.30
2018-04-16T06:46:41.343Z,79.30
2018-04-16T06:49:08.991Z,81.90
2018-04-16T06:51:36.925Z,78.00
2018-04-16T06:54:04.518Z,77.90
2018-04-16T06:56:32.496Z,77.60
2018-04-16T06:59:00.052Z,77.40
2018-04-16T07:01:28.237Z,77.20
2018-04-16T07:03:55.795Z,76.60
2018-04-16T07:06:23.344Z,75.60
2018-04-16T07:08:51.209Z,75.30
2018-04-16T07:11:18.694Z,76.10
2018-04-16T07:13:46.230Z,75.20
2018-04-16T07:16:13.903Z,74.20
2018-04-16T07:18:41.392Z,75.80
2018-04-16T07:21:09.066Z,75.40
2018-04-16T07:23:36.625Z,73.50
2018-04-16T07:26:04.230Z,73.70
2018-04-16T07:28:32.306Z,72.00
2018-04-16T07:31:00.273Z,72.00
2018-04-16T07:33:28.142Z,72.10
2018-04-16T07:35:55.609Z,75.50
2018-04-16T07:38:23.488Z,71.60
2018-04-16T07:40:50.955Z,71.90
2018-04-16T07:43:18.411Z,72.90
2018-04-16T07:45:46.072Z,72.50
2018-04-16T07:48:13.707Z,73.20
2018-04-16T07:50:41.424Z,72.90
2018-04-16T07:53:08.862Z,72.80
2018-04-16T07:55:36.387Z,72.70
2018-04-16T07:58:04.318Z,73.10
2018-04-16T08:00:31.924Z,74.30
2018-04-16T08:03:02.139Z,73.00
2018-04-16T08:05:30.028Z,72.50
2018-04-16T08:07:57.677Z,72.80
2018-04-16T08:10:25.236Z,68.80
2018-04-16T08:12:53.402Z,70.80
2018-04-16T08:15:21.065Z,70.70
2018-04-16T08:17:48.994Z,70.50
2018-04-16T08:20:16.596Z,68.30
2018-04-16T08:22:44.367Z,70.30
2018-04-16T08:25:11.872Z,70.30
2018-04-16T08:27:39.786Z,69.40
2018-04-16T08:30:07.756Z,69.70
2018-04-16T08:32:35.734Z,68.80
2018-04-16T08:35:03.502Z,69.30
2018-04-16T08:37:31.053Z,69.20
2018-04-16T08:39:58.945Z,70.10
2018-04-16T08:42:26.429Z,69.00
2018-04-16T08:44:53.955Z,67.90
2018-04-16T08:47:21.499Z,67.40
2018-04-16T08:49:49.449Z,68.20
2018-04-16T08:52:16.947Z,67.10
2018-04-16T08:54:44.381Z,66.40
2018-04-16T08:57:12.346Z,66.30
2018-04-16T08:59:40.412Z,67.00
2018-04-16T09:02:08.393Z,66.30
2018-04-16T09:04:36.013Z,65.90
2018-04-16T09:07:03.518Z,67.20
2018-04-16T09:09:31.592Z,66.50
2018-04-16T09:11:59.508Z,65.30
2018-04-16T09:14:27.020Z,65.60
2018-04-16T09:16:55.007Z,64.20
2018-04-16T09:19:22.540Z,63.70
2018-04-16T09:21:50.521Z,63.40
2018-04-16T09:24:18.026Z,63.70
2018-04-16T09:26:45.633Z,64.10
2018-04-16T09:29:13.968Z,63.30
2018-04-16T09:31:41.477Z,62.70
2018-04-16T09:34:09.439Z,62.20
2018-04-16T09:36:37.416Z,63.50
2018-04-16T09:39:06.333Z,62.70
2018-04-16T09:41:33.791Z,64.50
2018-04-16T09:44:01.393Z,61.60
2018-04-16T09:46:29.038Z,62.10
2018-04-16T09:48:56.650Z,62.10
2018-04-16T09:51:24.201Z,60.90
2018-04-16T09:53:51.690Z,62.00
2018-04-16T09:56:19.222Z,61.20
2018-04-16T09:58:47.196Z,61.40
2018-04-16T10:01:20.952Z,61.60
2018-04-16T10:03:48.502Z,60.90
2018-04-16T10:06:16.022Z,61.20
2018-04-16T10:08:43.982Z,61.70
2018-04-16T10:11:11.883Z,60.80
2018-04-16T10:13:39.413Z,61.50
2018-04-16T10:16:07.381Z,59.80
2018-04-16T10:18:35.664Z,59.80
2018-04-16T10:21:03.227Z,60.30
2018-04-16T10:23:31.285Z,60.50
2018-04-16T10:25:59.210Z,60.40
2018-04-16T10:28:26.715Z,58.30
2018-04-16T10:30:55.057Z,59.40
2018-04-16T10:33:22.609Z,59.50
2018-04-16T10:35:50.626Z,60.10
2018-04-16T10:38:18.699Z,60.00
2018-04-16T10:40:46.672Z,60.00
2018-04-16T10:43:20.889Z,60.00
2018-04-16T10:45:48.853Z,59.80
2018-04-16T10:48:16.829Z,59.40
2018-04-16T10:50:44.799Z,60.10
2018-04-16T10:53:12.658Z,57.10
2018-04-16T10:55:41.377Z,58.70
2018-04-16T10:58:09.007Z,57.90
2018-04-16T11:00:37.492Z,58.70
2018-04-16T11:03:05.460Z,59.00
2018-04-16T11:05:33.021Z,58.40
2018-04-16T11:08:00.918Z,58.50
2018-04-16T11:10:28.449Z,58.60
2018-04-16T11:12:56.532Z,58.00
2018-04-16T11:15:23.943Z,59.00
2018-04-16T11:17:51.435Z,58.80
2018-04-16T11:20:19.659Z,58.70
2018-04-16T11:22:47.116Z,58.10
2018-04-16T11:25:14.522Z,59.90
2018-04-16T11:27:42.502Z,59.80
2018-04-16T11:30:10.061Z,59.80
2018-04-16T11:32:48.261Z,59.10
2018-04-16T11:35:16.246Z,60.70
2018-04-16T11:37:43.896Z,59.80
2018-04-16T11:40:11.867Z,59.70
2018-04-16T11:42:39.743Z,59.80
2018-04-16T11:45:07.304Z,60.40
2018-04-16T11:47:35.160Z,60.70
2018-04-16T11:50:02.955Z,60.60
2018-04-16T11:52:30.482Z,59.80
2018-04-16T11:54:58.459Z,59.50
2018-04-16T11:57:26.440Z,59.40
2018-04-16T11:59:54.083Z,60.00
2018-04-16T12:02:22.057Z,59.90
2018-04-16T12:04:49.983Z,59.70
2018-04-16T12:07:17.695Z,59.20
2018-04-16T12:09:45.479Z,59.00
2018-04-16T12:12:13.026Z,58.50
2018-04-16T12:14:40.570Z,57.30
2018-04-16T12:17:08.542Z,57.90
2018-04-16T12:19:36.509Z,56.30
2018-04-16T12:22:04.484Z,56.10
2018-04-16T12:24:32.365Z,55.80
2018-04-16T12:27:00.019Z,55.30
2018-04-16T12:29:27.575Z,54.80
2018-04-16T12:31:55.137Z,54.60
2018-04-16T12:34:23.018Z,54.50
2018-04-16T12:36:50.460Z,54.50
2018-04-16T12:39:18.423Z,54.80
2018-04-16T12:41:46.405Z,54.60
2018-04-16T12:44:14.366Z,54.10
2018-04-16T12:46:42.240Z,53.90
2018-04-16T12:49:20.369Z,54.20
2018-04-16T12:51:58.240Z,53.80
2018-04-16T12:54:27.233Z,53.80
2018-04-16T12:56:55.101Z,54.20
2018-04-16T12:59:23.000Z,53.70
2018-04-16T13:01:50.530Z,54.50
2018-04-16T13:04:18.433Z,53.60
2018-04-16T13:06:45.970Z,51.90
2018-04-16T13:09:13.520Z,52.00
2018-04-16T13:11:41.489Z,52.10
2018-04-16T13:14:09.465Z,51.70
2018-04-16T13:16:37.017Z,50.60
2018-04-16T13:19:04.907Z,50.40
2018-04-16T13:21:32.447Z,51.30
2018-04-16T13:24:00.411Z,49.90
2018-04-16T13:26:28.493Z,50.10
2018-04-16T13:28:56.452Z,49.90
2018-04-16T13:31:24.423Z,50.20
2018-04-16T13:33:52.396Z,49.90
2018-04-16T13:36:20.286Z,50.80
2018-04-16T13:38:48.127Z,49.30
2018-04-16T13:41:15.948Z,49.50
2018-04-16T13:43:43.511Z,48.80
2018-04-16T13:46:12.799Z,49.10
2018-04-16T13:48:44.517Z,49.30
2018-04-16T13:51:12.394Z,48.60
2018-04-16T13:53:39.939Z,49.30
2018-04-16T13:56:07.963Z,50.50
2018-04-16T13:58:35.468Z,50.60
2018-04-16T14:01:04.289Z,50.70
2018-04-16T14:03:32.225Z,50.10
2018-04-16T14:06:00.510Z,50.50
2018-04-16T14:08:28.480Z,51.00
2018-04-16T14:10:56.450Z,51.30
2018-04-16T14:13:24.420Z,51.70
2018-04-16T14:16:04.179Z,51.20
2018-04-16T14:18:31.669Z,52.90
2018-04-16T14:20:59.286Z,51.70
2018-04-16T14:23:26.838Z,51.00
2018-04-16T14:25:54.815Z,51.50
2018-04-16T14:28:22.787Z,51.20
2018-04-16T14:30:50.344Z,51.70
2018-04-16T14:33:18.314Z,51.70
2018-04-16T14:35:45.864Z,51.50
2018-04-16T14:38:13.846Z,52.20
2018-04-16T14:40:41.407Z,52.10
2018-04-16T14:43:08.874Z,51.90
2018-04-16T14:45:36.641Z,51.90
2018-04-16T14:48:04.242Z,51.10
2018-04-16T14:50:31.738Z,51.10
2018-04-16T14:52:59.727Z,52.40
2018-04-16T14:55:27.367Z,53.30
2018-04-16T14:57:55.237Z,53.70
2018-04-16T15:00:37.808Z,54.30
2018-04-16T15:03:05.108Z,55.10
2018-04-16T15:05:32.417Z,56.00
2018-04-16T15:08:12.219Z,56.20
2018-04-16T15:10:39.515Z,57.50
2018-04-16T15:13:07.389Z,57.40
2018-04-16T15:15:34.694Z,58.10
2018-04-16T15:18:02.006Z,57.30
2018-04-16T15:20:29.320Z,57.80
2018-04-16T15:22:56.636Z,58.60
2018-04-16T15:25:24.103Z,58.50
2018-04-16T15:27:51.400Z,58.70
2018-04-16T15:30:18.701Z,58.90
2018-04-16T15:32:46.073Z,59.40
2018-04-16T15:35:13.800Z,59.80
2018-04-16T15:37:41.576Z,59.70
2018-04-16T15:40:09.267Z,60.50
2018-04-16T15:42:36.588Z,61.20
2018-04-16T15:45:09.044Z,60.60
2018-04-16T15:47:36.824Z,61.50
2018-04-16T15:50:04.182Z,61.70
2018-04-16T15:52:31.482Z,60.70
2018-04-16T15:54:58.858Z,61.80
2018-04-16T15:57:26.293Z,62.00
2018-04-16T15:59:53.616Z,62.40
2018-04-16T16:02:21.352Z,62.90
2018-04-16T16:04:48.848Z,62.70
2018-04-16T16:07:19.625Z,64.10
2018-04-16T16:09:46.965Z,63.60
2018-04-16T16:12:22.061Z,62.30
2018-04-16T16:14:49.825Z,62.70
2018-04-16T16:17:29.733Z,62.90
2018-04-16T16:19:57.048Z,63.60
2018-04-16T16:22:24.415Z,63.60
2018-04-16T16:24:51.863Z,64.30
2018-04-16T16:27:19.165Z,64.90
2018-04-16T16:29:46.485Z,64.80
2018-04-16T16:32:13.791Z,65.10
2018-04-16T16:34:41.500Z,64.50
2018-04-16T16:37:08.832Z,65.00
2018-04-16T16:39:36.188Z,63.50
2018-04-16T16:42:03.561Z,64.40
2018-04-16T16:44:39.268Z,65.40
2018-04-16T16:47:07.027Z,65.20
2018-04-16T16:49:39.217Z,65.00
2018-04-16T16:52:12.347Z,64.50
2018-04-16T16:54:42.887Z,66.50
2018-04-16T16:57:10.584Z,65.30
2018-04-16T16:59:38.841Z,66.90
2018-04-16T17:02:06.139Z,66.30
2018-04-16T17:04:33.465Z,66.50
2018-04-16T17:07:02.008Z,65.00
2018-04-16T17:09:29.409Z,66.80
2018-04-16T17:12:01.152Z,66.20
2018-04-16T17:14:28.482Z,67.70
2018-04-16T17:17:00.832Z,67.20
2018-04-16T17:19:28.888Z,66.80
2018-04-16T17:21:56.209Z,65.50
2018-04-16T17:24:23.946Z,66.70
2018-04-16T17:26:56.072Z,67.90
2018-04-16T17:29:23.428Z,67.90
2018-04-16T17:31:50.732Z,67.90
2018-04-16T17:34:18.189Z,68.90
2018-04-16T17:36:45.548Z,68.10
2018-04-16T17:39:12.944Z,67.80
2018-04-16T17:41:40.282Z,67.40
2018-04-16T17:44:07.605Z,65.20
2018-04-16T17:46:38.051Z,68.00
2018-04-16T17:49:05.904Z,66.90
2018-04-16T17:51:33.240Z,66.80
2018-04-16T17:54:00.649Z,67.80
2018-04-16T17:56:28.042Z,66.90
2018-04-16T17:58:55.521Z,67.80
2018-04-16T18:01:22.866Z,67.90
2018-04-16T18:03:50.381Z,65.00
2018-04-16T18:06:17.724Z,68.00
2018-04-16T18:08:45.044Z,68.50
2018-04-16T18:11:12.421Z,67.90
2018-04-16T18:13:42.157Z,68.50
2018-04-16T18:16:09.555Z,68.00
2018-04-16T18:18:36.828Z,69.00
2018-04-16T18:21:04.182Z,68.50
2018-04-16T18:23:35.127Z,67.40
2018-04-16T18:26:02.922Z,68.40
2018-04-16T18:28:30.232Z,68.50
2018-04-16T18:30:57.550Z,68.30
2018-04-16T18:33:28.955Z,68.40
2018-04-16T18:35:56.661Z,68.50
2018-04-16T18:38:24.014Z,68.60
2018-04-16T18:40:55.195Z,68.70
2018-04-16T18:43:24.569Z,68.60
2018-04-16T18:45:51.883Z,68.90
2018-04-16T18:48:19.218Z,68.80
2018-04-16T18:50:46.940Z,68.80
2018-04-16T18:53:14.321Z,68.80
2018-04-16T18:55:41.705Z,68.90
2018-04-16T18:58:11.050Z,68.90
2018-04-16T19:00:38.436Z,69.10
2018-04-16T19:03:09.323Z,69.00
2018-04-16T19:05:41.208Z,69.20
2018-04-16T19:08:08.641Z,69.30
2018-04-16T19:10:44.476Z,69.40
2018-04-16T19:13:11.899Z,69.40
2018-04-16T19:15:39.421Z,69.40
2018-04-16T19:18:06.684Z,69.40
2018-04-16T19:20:39.699Z,69.50
2018-04-16T19:23:18.425Z,69.60
2018-04-16T19:25:45.925Z,69.60
2018-04-16T19:28:16.739Z,69.70
2018-04-16T19:30:44.353Z,69.70
2018-04-16T19:33:29.261Z,69.70
2018-04-16T19:35:59.104Z,69.70
2018-04-16T19:38:30.305Z,69.70
2018-04-16T19:41:00.051Z,69.80
2018-04-16T19:43:27.363Z,69.90
2018-04-16T19:45:54.744Z,69.90
2018-04-16T19:48:22.070Z,69.80
2018-04-16T19:50:49.516Z,70.00
2018-04-16T19:53:16.902Z,70.10
2018-04-16T19:55:50.208Z,70.20
2018-04-16T19:58:22.532Z,70.10
2018-04-16T20:00:49.900Z,70.20
2018-04-16T20:03:29.232Z,70.20
2018-04-16T20:05:56.561Z,70.20
2018-04-16T20:08:28.540Z,70.20
2018-04-16T20:10:55.835Z,70.40
2018-04-16T20:13:23.259Z,70.40
2018-04-16T20:15:50.802Z,70.40
2018-04-16T20:18:19.133Z,70.40
2018-04-16T20:20:46.497Z,70.50
2018-04-16T20:23:13.848Z,70.60
2018-04-16T20:25:41.164Z,70.60
2018-04-16T20:28:08.732Z,70.70
2018-04-16T20:30:36.534Z,70.70
2018-04-16T20:33:20.983Z,70.80
2018-04-16T20:35:48.529Z,70.80
2018-04-16T20:38:15.884Z,70.90
2018-04-16T20:40:43.276Z,70.80
2018-04-16T20:43:10.595Z,71.00
2018-04-16T20:45:37.919Z,71.00
2018-04-16T20:48:05.342Z,71.30
2018-04-16T20:50:32.673Z,71.30
2018-04-16T20:52:59.986Z,71.40
2018-04-16T20:55:31.717Z,71.40
2018-04-16T20:57:59.011Z,71.50
2018-04-16T21:00:26.766Z,72.00
2018-04-16T21:02:57.767Z,71.70
2018-04-16T21:05:27.031Z,71.70
2018-04-16T21:07:54.338Z,71.70
2018-04-16T21:10:21.697Z,71.70
2018-04-16T21:12:49.025Z,72.00
2018-04-16T21:15:16.336Z,71.90
2018-04-16T21:17:43.756Z,72.20
2018-04-16T21:20:11.063Z,72.00
2018-04-16T21:22:38.435Z,72.20
2018-04-16T21:25:22.321Z,72.10
2018-04-16T21:27:50.430Z,72.50
2018-04-16T21:30:17.816Z,72.50
2018-04-16T21:32:45.116Z,72.60
2018-04-16T21:35:12.931Z,72.60
2018-04-16T21:37:40.273Z,73.00
2018-04-16T21:40:07.664Z,73.10
2018-04-16T21:42:48.142Z,72.90
2018-04-16T21:45:15.921Z,72.70
2018-04-16T21:47:43.260Z,73.00
2018-04-16T21:50:11.144Z,73.50
2018-04-16T21:52:38.452Z,73.60
2018-04-16T21:55:09.576Z,73.60
2018-04-16T21:57:36.937Z,73.30
2018-04-16T22:00:04.707Z,74.00
2018-04-16T22:02:32.025Z,74.00
2018-04-16T22:04:59.371Z,74.00
2018-04-16T22:07:26.696Z,73.70
2018-04-16T22:09:53.997Z,73.90
2018-04-16T22:12:21.295Z,74.00
2018-04-16T22:14:49.084Z,73.80
2018-04-16T22:17:16.771Z,74.00
2018-04-16T22:19:44.077Z,74.10
2018-04-16T22:22:15.084Z,74.20
2018-04-16T22:24:42.388Z,73.80
2018-04-16T22:27:10.285Z,74.30
2018-04-16T22:29:37.741Z,74.40
2018-04-16T22:32:05.077Z,73.90
2018-04-16T22:34:32.435Z,74.50
2018-04-16T22:36:59.842Z,74.40
2018-04-16T22:39:27.197Z,74.40
2018-04-16T22:41:54.679Z,74.30
2018-04-16T22:44:22.414Z,74.00
2018-04-16T22:46:49.861Z,74.30
2018-04-16T22:49:17.435Z,74.70
2018-04-16T22:51:44.746Z,74.50
2018-04-16T22:54:12.073Z,74.20
2018-04-16T22:56:39.839Z,74.50
2018-04-16T22:59:07.620Z,74.40
2018-04-16T23:01:34.941Z,74.60
2018-04-16T23:04:02.432Z,74.80
2018-04-16T23:06:29.836Z,75.00
2018-04-16T23:08:57.147Z,74.90
2018-04-16T23:11:24.644Z,75.00
2018-04-16T23:13:52.078Z,74.90
2018-04-16T23:16:19.389Z,75.10
2018-04-16T23:18:47.095Z,74.80
2018-04-16T23:21:14.415Z,74.80
2018-04-16T23:23:42.105Z,75.20
2018-04-16T23:26:09.661Z,75.20
2018-04-16T23:28:37.023Z,75.40
2018-04-16T23:31:05.372Z,75.20
2018-04-16T23:33:33.115Z,75.10
2018-04-16T23:36:00.483Z,75.20
2018-04-16T23:38:28.253Z,75.50
2018-04-16T23:40:55.632Z,75.10
2018-04-16T23:43:23.004Z,75.40
2018-04-16T23:45:50.295Z,75.50
2018-04-16T23:48:21.072Z,75.40
2018-04-16T23:50:48.492Z,75.60
2018-04-16T23:53:16.193Z,75.50
2018-04-16T23:55:43.523Z,75.60
2018-04-16T23:58:15.465Z,75.80
